Michael S — WDE9794 — position and weather

sailwx.info

Track history (hours):
 
Tides and Currents Weather Stations Pressure Air Temp Water Temp Dewpoint Dewpoint Depression Visibility Wind Speed Wind Dir Waves Ship Positions

Michael S

Owner: Bisso Tow Boats Inc., New Orleans, LA. More information available from US FCC via Universal Licensing System and Coast Guard Vessel Documentation Center.

Last reported at 2015-May-23 01:33 UTC. Time now 2015-May-23 11:51 UTC.
Position N 29°55' W 089°56'.

Length 33 m; draft 3 m.

Type: Towing. MMSI: 367413700.

Date/timePositionNaut miles runAvg speedWind from/ knotsBaromVisibWave heightAir tempDewpointWater temp
2015-May-23 01:33N 29°55' W 089°56'7 5.8
2015-May-23 00:20N 29°49' W 090°00'7 1.0
2015-May-22 17:23N 29°56' W 089°59'0 0.2
2015-May-22 15:05N 29°56' W 089°60'1 0.2
2015-May-22 09:10N 29°57' W 090°01'0 0.0
2015-May-22 02:13N 29°57' W 090°01'0 0.1
2015-May-21 23:32N 29°57' W 090°01'0 0.1
2015-May-21 21:14N 29°57' W 090°01'0 0.0
2015-May-21 20:20N 29°57' W 090°01'0 0.0
2015-May-21 16:17N 29°57' W 090°01'0 0.0
2015-May-21 15:11N 29°57' W 090°01'3 0.3
2015-May-21 05:33N 29°56' W 089°59'3 2.4
2015-May-21 04:12N 29°55' W 089°55'1 0.5
2015-May-21 02:18N 29°54' W 089°54'7 5.9
2015-May-21 01:11N 29°57' W 090°01'1 1.0
2015-May-21 00:08N 29°57' W 089°60'3 0.7
2015-May-20 19:05N 29°57' W 090°04'2 3.5
2015-May-20 18:33N 29°58' W 090°02'1 0.3
2015-May-20 15:13N 29°57' W 090°01'0 0.4
2015-May-20 14:32N 29°57' W 090°01'4 1.2
2015-May-20 11:17N 29°55' W 089°57'10 2.7
2015-May-20 07:33N 29°56' W 090°08'1 1.1
2015-May-20 06:31N 29°55' W 090°08'4 0.6
2015-May-20 00:25N 29°56' W 090°04'3 2.3
2015-May-19 23:18N 29°57' W 090°01'0 0.0
2015-May-19 22:33N 29°57' W 090°01'0 0.0
2015-May-19 21:06N 29°57' W 090°01'0 0.0
2015-May-19 18:30N 29°57' W 090°01'0 0.0
2015-May-19 15:30N 29°57' W 090°01'0 0.0
2015-May-19 14:24N 29°57' W 090°01'4 2.2
2015-May-19 12:29N 29°55' W 089°57'0 0.1
2015-May-19 11:24N 29°56' W 089°57'0 0.0
2015-May-19 10:06N 29°56' W 089°57'0 0.0
2015-May-19 05:12N 29°56' W 089°57'4 0.2
2015-May-18 13:07N 29°57' W 090°01'0 0.0
2015-May-18 10:07N 29°57' W 090°01'0 0.0
2015-May-18 06:25N 29°57' W 090°01'4 1.3
2015-May-18 03:28N 29°55' W 089°57'0 0.3
2015-May-18 02:33N 29°55' W 089°57'0 0.1
2015-May-18 01:15N 29°55' W 089°57'1 0.4
2015-May-17 23:32N 29°55' W 089°57'3 3.0
2015-May-17 22:24N 29°57' W 090°01'6 3.2
2015-May-17 20:21N 29°56' W 090°08'0 0.0
2015-May-17 15:27N 29°56' W 090°08'0 0.0
2015-May-17 11:12N 29°56' W 090°08'0 0.0
2015-May-17 09:06N 29°56' W 090°08'0 0.0
2015-May-17 08:18N 29°56' W 090°08'0 0.0
2015-May-17 07:18N 29°56' W 090°08'0 0.0
2015-May-17 06:06N 29°56' W 090°08'0 0.0
2015-May-16 21:33N 29°56' W 090°08'1 0.2
2015-May-16 18:12N 29°56' W 090°08'1 0.7
2015-May-16 17:12N 29°55' W 090°08'4 5.8
2015-May-16 16:33N 29°56' W 090°04'3 0.3
2015-May-16 07:28N 29°57' W 090°01'2 0.8
2015-May-16 04:30N 29°56' W 089°59'2 0.1
2015-May-15 13:26N 29°57' W 090°01'0 0.0
2015-May-15 06:30N 29°57' W 090°01'0 0.0
2015-May-15 03:03N 29°57' W 090°01'6 3.6
2015-May-15 01:14N 29°55' W 090°08'0 0.0
2015-May-14 19:14N 29°55' W 090°08'1 0.7
2015-May-14 18:08N 29°56' W 090°09'6 3.7
2015-May-14 16:31N 29°57' W 090°02'5 2.5
2015-May-14 14:33N 29°55' W 089°56'6 1.2
2015-May-14 09:33N 29°57' W 090°03'6 0.6
2015-May-13 23:07N 29°53' W 089°58'3 4.8
2015-May-13 22:33N 29°55' W 089°57'4 0.8
2015-May-13 18:04N 29°52' W 089°55'12 1.7
2015-May-13 11:24N 29°56' W 090°08'1 0.3
2015-May-13 07:11N 29°55' W 090°07'1 0.3
2015-May-13 04:23N 29°55' W 090°06'1 0.6
2015-May-13 02:24N 29°55' W 090°05'  
Track history (hours):
 
Tides and Currents Weather Stations Pressure Air Temp Water Temp Dewpoint Dewpoint Depression Visibility Wind Speed Wind Dir Waves Ship Positions

Michael S

Owner: Bisso Tow Boats Inc., New Orleans, LA. More information available from US FCC via Universal Licensing System and Coast Guard Vessel Documentation Center.

Last reported at 2015-May-23 01:33 UTC. Time now 2015-May-23 11:51 UTC.
Position N 29°55' W 089°56'.

Length 33 m; draft 3 m.

Type: Towing. MMSI: 367413700.

Date/timePositionNaut miles runAvg speedWind from/ knotsBaromVisibWave heightAir tempDewpointWater temp
2015-May-23 01:33N 29°55' W 089°56'7 5.8
2015-May-23 00:20N 29°49' W 090°00'7 1.0
2015-May-22 17:23N 29°56' W 089°59'0 0.2
2015-May-22 15:05N 29°56' W 089°60'1 0.2
2015-May-22 09:10N 29°57' W 090°01'0 0.0
2015-May-22 02:13N 29°57' W 090°01'0 0.1
2015-May-21 23:32N 29°57' W 090°01'0 0.1
2015-May-21 21:14N 29°57' W 090°01'0 0.0
2015-May-21 20:20N 29°57' W 090°01'0 0.0
2015-May-21 16:17N 29°57' W 090°01'0 0.0
2015-May-21 15:11N 29°57' W 090°01'3 0.3
2015-May-21 05:33N 29°56' W 089°59'3 2.4
2015-May-21 04:12N 29°55' W 089°55'1 0.5
2015-May-21 02:18N 29°54' W 089°54'7 5.9
2015-May-21 01:11N 29°57' W 090°01'1 1.0
2015-May-21 00:08N 29°57' W 089°60'3 0.7
2015-May-20 19:05N 29°57' W 090°04'2 3.5
2015-May-20 18:33N 29°58' W 090°02'1 0.3
2015-May-20 15:13N 29°57' W 090°01'0 0.4
2015-May-20 14:32N 29°57' W 090°01'4 1.2
2015-May-20 11:17N 29°55' W 089°57'10 2.7
2015-May-20 07:33N 29°56' W 090°08'1 1.1
2015-May-20 06:31N 29°55' W 090°08'4 0.6
2015-May-20 00:25N 29°56' W 090°04'3 2.3
2015-May-19 23:18N 29°57' W 090°01'0 0.0
2015-May-19 22:33N 29°57' W 090°01'0 0.0
2015-May-19 21:06N 29°57' W 090°01'0 0.0
2015-May-19 18:30N 29°57' W 090°01'0 0.0
2015-May-19 15:30N 29°57' W 090°01'0 0.0
2015-May-19 14:24N 29°57' W 090°01'4 2.2
2015-May-19 12:29N 29°55' W 089°57'0 0.1
2015-May-19 11:24N 29°56' W 089°57'0 0.0
2015-May-19 10:06N 29°56' W 089°57'0 0.0
2015-May-19 05:12N 29°56' W 089°57'4 0.2
2015-May-18 13:07N 29°57' W 090°01'0 0.0
2015-May-18 10:07N 29°57' W 090°01'0 0.0
2015-May-18 06:25N 29°57' W 090°01'4 1.3
2015-May-18 03:28N 29°55' W 089°57'0 0.3
2015-May-18 02:33N 29°55' W 089°57'0 0.1
2015-May-18 01:15N 29°55' W 089°57'1 0.4
2015-May-17 23:32N 29°55' W 089°57'3 3.0
2015-May-17 22:24N 29°57' W 090°01'6 3.2
2015-May-17 20:21N 29°56' W 090°08'0 0.0
2015-May-17 15:27N 29°56' W 090°08'0 0.0
2015-May-17 11:12N 29°56' W 090°08'0 0.0
2015-May-17 09:06N 29°56' W 090°08'0 0.0
2015-May-17 08:18N 29°56' W 090°08'0 0.0
2015-May-17 07:18N 29°56' W 090°08'0 0.0
2015-May-17 06:06N 29°56' W 090°08'0 0.0
2015-May-16 21:33N 29°56' W 090°08'1 0.2
2015-May-16 18:12N 29°56' W 090°08'1 0.7
2015-May-16 17:12N 29°55' W 090°08'4 5.8
2015-May-16 16:33N 29°56' W 090°04'3 0.3
2015-May-16 07:28N 29°57' W 090°01'2 0.8
2015-May-16 04:30N 29°56' W 089°59'2 0.1
2015-May-15 13:26N 29°57' W 090°01'0 0.0
2015-May-15 06:30N 29°57' W 090°01'0 0.0
2015-May-15 03:03N 29°57' W 090°01'6 3.6
2015-May-15 01:14N 29°55' W 090°08'0 0.0
2015-May-14 19:14N 29°55' W 090°08'1 0.7
2015-May-14 18:08N 29°56' W 090°09'6 3.7
2015-May-14 16:31N 29°57' W 090°02'5 2.5
2015-May-14 14:33N 29°55' W 089°56'6 1.2
2015-May-14 09:33N 29°57' W 090°03'6 0.6
2015-May-13 23:07N 29°53' W 089°58'3 4.8
2015-May-13 22:33N 29°55' W 089°57'4 0.8
2015-May-13 18:04N 29°52' W 089°55'12 1.7
2015-May-13 11:24N 29°56' W 090°08'1 0.3
2015-May-13 07:11N 29°55' W 090°07'1 0.3
2015-May-13 04:23N 29°55' W 090°06'1 0.6
2015-May-13 02:24N 29°55' W 090°05'  

Dump ship's entire track history